sensor_id;sensor_type;location;lat;lon;timestamp;P1;durP1;ratioP1;P2;durP2;ratioP2
80379;SDS011;69690;48.158;17.134;2023-06-10T00:01:10;17.87;;;16.07;;
80379;SDS011;69690;48.158;17.134;2023-06-10T00:06:11;16.93;;;15.43;;
80379;SDS011;69690;48.158;17.134;2023-06-10T00:11:12;16.93;;;15.40;;
80379;SDS011;69690;48.158;17.134;2023-06-10T00:16:14;18.17;;;16.37;;
80379;SDS011;69690;48.158;17.134;2023-06-10T00:21:18;18.27;;;16.57;;
80379;SDS011;69690;48.158;17.134;2023-06-10T00:26:19;18.93;;;17.13;;
80379;SDS011;69690;48.158;17.134;2023-06-10T00:31:21;20.00;;;18.00;;
80379;SDS011;69690;48.158;17.134;2023-06-10T00:36:26;18.33;;;16.63;;
80379;SDS011;69690;48.158;17.134;2023-06-10T00:41:29;18.83;;;16.93;;
80379;SDS011;69690;48.158;17.134;2023-06-10T00:46:31;20.87;;;18.80;;
80379;SDS011;69690;48.158;17.134;2023-06-10T00:51:34;19.83;;;17.83;;
80379;SDS011;69690;48.158;17.134;2023-06-10T00:56:36;20.93;;;18.77;;
80379;SDS011;69690;48.158;17.134;2023-06-10T01:01:38;21.23;;;18.30;;
80379;SDS011;69690;48.158;17.134;2023-06-10T01:12:24;18.70;;;17.00;;
80379;SDS011;69690;48.158;17.134;2023-06-10T01:17:33;18.10;;;16.50;;
80379;SDS011;69690;48.158;17.134;2023-06-10T01:22:38;18.37;;;16.67;;
80379;SDS011;69690;48.158;17.134;2023-06-10T01:27:39;19.53;;;17.80;;
80379;SDS011;69690;48.158;17.134;2023-06-10T01:32:48;19.17;;;17.17;;
80379;SDS011;69690;48.158;17.134;2023-06-10T01:37:52;18.67;;;17.00;;
80379;SDS011;69690;48.158;17.134;2023-06-10T01:42:57;21.93;;;19.77;;
80379;SDS011;69690;48.158;17.134;2023-06-10T01:47:59;22.63;;;20.43;;
80379;SDS011;69690;48.158;17.134;2023-06-10T01:53:00;21.90;;;19.80;;
80379;SDS011;69690;48.158;17.134;2023-06-10T01:58:01;21.43;;;19.33;;
80379;SDS011;69690;48.158;17.134;2023-06-10T02:03:03;19.90;;;18.13;;
80379;SDS011;69690;48.158;17.134;2023-06-10T02:08:04;20.63;;;18.63;;
80379;SDS011;69690;48.158;17.134;2023-06-10T02:13:05;21.60;;;19.40;;
80379;SDS011;69690;48.158;17.134;2023-06-10T02:18:07;23.77;;;20.97;;
80379;SDS011;69690;48.158;17.134;2023-06-10T02:23:12;21.30;;;19.20;;
80379;SDS011;69690;48.158;17.134;2023-06-10T02:28:13;20.70;;;18.73;;
80379;SDS011;69690;48.158;17.134;2023-06-10T02:33:14;21.93;;;19.77;;
80379;SDS011;69690;48.158;17.134;2023-06-10T02:38:18;20.77;;;18.77;;
80379;SDS011;69690;48.158;17.134;2023-06-10T02:43:19;20.87;;;18.87;;
80379;SDS011;69690;48.158;17.134;2023-06-10T02:48:23;21.07;;;19.07;;
80379;SDS011;69690;48.158;17.134;2023-06-10T02:53:25;21.07;;;19.07;;
80379;SDS011;69690;48.158;17.134;2023-06-10T02:58:27;20.27;;;18.30;;
80379;SDS011;69690;48.158;17.134;2023-06-10T03:03:30;18.47;;;16.87;;
80379;SDS011;69690;48.158;17.134;2023-06-10T03:08:34;18.53;;;16.93;;
80379;SDS011;69690;48.158;17.134;2023-06-10T03:13:36;18.40;;;16.80;;
80379;SDS011;69690;48.158;17.134;2023-06-10T03:18:37;20.03;;;18.23;;
80379;SDS011;69690;48.158;17.134;2023-06-10T03:23:42;18.90;;;17.10;;
80379;SDS011;69690;48.158;17.134;2023-06-10T03:28:43;20.07;;;18.17;;
80379;SDS011;69690;48.158;17.134;2023-06-10T03:33:44;19.43;;;17.70;;
80379;SDS011;69690;48.158;17.134;2023-06-10T03:38:46;18.20;;;16.63;;
80379;SDS011;69690;48.158;17.134;2023-06-10T03:43:48;18.33;;;16.73;;
80379;SDS011;69690;48.158;17.134;2023-06-10T03:48:49;17.63;;;16.00;;
80379;SDS011;69690;48.158;17.134;2023-06-10T03:53:51;18.93;;;17.23;;
80379;SDS011;69690;48.158;17.134;2023-06-10T03:58:54;26.53;;;24.00;;
80379;SDS011;69690;48.158;17.134;2023-06-10T04:03:56;27.23;;;24.53;;
80379;SDS011;69690;48.158;17.134;2023-06-10T04:08:58;27.70;;;24.83;;
80379;SDS011;69690;48.158;17.134;2023-06-10T04:14:01;30.10;;;27.10;;
80379;SDS011;69690;48.158;17.134;2023-06-10T04:19:03;28.30;;;25.27;;
80379;SDS011;69690;48.158;17.134;2023-06-10T04:24:05;26.90;;;24.10;;
80379;SDS011;69690;48.158;17.134;2023-06-10T04:29:07;29.53;;;26.00;;
80379;SDS011;69690;48.158;17.134;2023-06-10T04:34:08;26.60;;;24.10;;
80379;SDS011;69690;48.158;17.134;2023-06-10T04:39:10;25.50;;;23.07;;
80379;SDS011;69690;48.158;17.134;2023-06-10T04:44:12;24.97;;;22.43;;
80379;SDS011;69690;48.158;17.134;2023-06-10T04:49:14;25.03;;;22.43;;
80379;SDS011;69690;48.158;17.134;2023-06-10T04:54:15;24.33;;;21.83;;
80379;SDS011;69690;48.158;17.134;2023-06-10T04:59:17;22.17;;;20.00;;
80379;SDS011;69690;48.158;17.134;2023-06-10T05:04:18;23.07;;;20.77;;
80379;SDS011;69690;48.158;17.134;2023-06-10T05:09:19;23.67;;;21.37;;
80379;SDS011;69690;48.158;17.134;2023-06-10T05:14:21;21.87;;;19.83;;
80379;SDS011;69690;48.158;17.134;2023-06-10T05:19:22;22.90;;;20.70;;
80379;SDS011;69690;48.158;17.134;2023-06-10T05:24:24;22.07;;;19.83;;
80379;SDS011;69690;48.158;17.134;2023-06-10T05:29:25;21.00;;;18.90;;
80379;SDS011;69690;48.158;17.134;2023-06-10T05:34:26;22.58;;;20.37;;
80379;SDS011;69690;48.158;17.134;2023-06-10T05:39:27;21.40;;;19.20;;
80379;SDS011;69690;48.158;17.134;2023-06-10T05:44:29;20.85;;;18.58;;
80379;SDS011;69690;48.158;17.134;2023-06-10T05:49:30;21.23;;;18.90;;
80379;SDS011;69690;48.158;17.134;2023-06-10T05:54:31;20.05;;;18.08;;
80379;SDS011;69690;48.158;17.134;2023-06-10T05:59:32;20.95;;;19.00;;
80379;SDS011;69690;48.158;17.134;2023-06-10T06:04:34;22.50;;;20.12;;
80379;SDS011;69690;48.158;17.134;2023-06-10T06:09:35;21.70;;;19.70;;
80379;SDS011;69690;48.158;17.134;2023-06-10T06:14:37;21.35;;;19.15;;
80379;SDS011;69690;48.158;17.134;2023-06-10T06:19:42;19.45;;;17.35;;
80379;SDS011;69690;48.158;17.134;2023-06-10T06:24:43;18.10;;;16.50;;
80379;SDS011;69690;48.158;17.134;2023-06-10T06:29:45;18.15;;;16.55;;
80379;SDS011;69690;48.158;17.134;2023-06-10T06:34:46;18.08;;;16.33;;
80379;SDS011;69690;48.158;17.134;2023-06-10T06:39:47;16.12;;;14.73;;
80379;SDS011;69690;48.158;17.134;2023-06-10T06:44:49;17.27;;;15.52;;
80379;SDS011;69690;48.158;17.134;2023-06-10T06:49:50;16.87;;;15.32;;
80379;SDS011;69690;48.158;17.134;2023-06-10T06:54:52;17.15;;;15.32;;
80379;SDS011;69690;48.158;17.134;2023-06-10T06:59:53;17.42;;;15.68;;
80379;SDS011;69690;48.158;17.134;2023-06-10T07:04:54;17.10;;;15.50;;
80379;SDS011;69690;48.158;17.134;2023-06-10T07:09:56;17.12;;;15.52;;
80379;SDS011;69690;48.158;17.134;2023-06-10T07:14:57;17.17;;;15.35;;
80379;SDS011;69690;48.158;17.134;2023-06-10T07:19:58;15.63;;;14.23;;
80379;SDS011;69690;48.158;17.134;2023-06-10T07:25:00;14.98;;;13.77;;
80379;SDS011;69690;48.158;17.134;2023-06-10T07:30:01;15.40;;;14.00;;
80379;SDS011;69690;48.158;17.134;2023-06-10T07:35:05;14.85;;;13.57;;
80379;SDS011;69690;48.158;17.134;2023-06-10T07:40:10;15.15;;;13.85;;
80379;SDS011;69690;48.158;17.134;2023-06-10T07:45:12;15.65;;;14.35;;
80379;SDS011;69690;48.158;17.134;2023-06-10T07:50:14;14.85;;;13.45;;
80379;SDS011;69690;48.158;17.134;2023-06-10T07:55:16;13.27;;;12.05;;
80379;SDS011;69690;48.158;17.134;2023-06-10T08:00:18;11.88;;;10.90;;
80379;SDS011;69690;48.158;17.134;2023-06-10T08:05:19;10.90;;;10.00;;
80379;SDS011;69690;48.158;17.134;2023-06-10T08:10:21;11.07;;;10.07;;
80379;SDS011;69690;48.158;17.134;2023-06-10T08:15:22;10.02;;;9.13;;
80379;SDS011;69690;48.158;17.134;2023-06-10T08:20:23;10.30;;;9.40;;
80379;SDS011;69690;48.158;17.134;2023-06-10T08:25:25;11.93;;;10.88;;
80379;SDS011;69690;48.158;17.134;2023-06-10T08:30:26;13.50;;;12.32;;
80379;SDS011;69690;48.158;17.134;2023-06-10T08:35:28;15.57;;;14.18;;
80379;SDS011;69690;48.158;17.134;2023-06-10T08:40:29;13.23;;;12.15;;
80379;SDS011;69690;48.158;17.134;2023-06-10T08:45:31;13.65;;;12.35;;
80379;SDS011;69690;48.158;17.134;2023-06-10T08:50:34;14.35;;;13.05;;
80379;SDS011;69690;48.158;17.134;2023-06-10T08:55:41;12.57;;;11.45;;
80379;SDS011;69690;48.158;17.134;2023-06-10T09:00:46;12.05;;;11.00;;
80379;SDS011;69690;48.158;17.134;2023-06-10T09:05:48;12.98;;;11.90;;
80379;SDS011;69690;48.158;17.134;2023-06-10T09:10:49;13.00;;;12.00;;
80379;SDS011;69690;48.158;17.134;2023-06-10T09:15:51;12.60;;;11.60;;
80379;SDS011;69690;48.158;17.134;2023-06-10T09:20:52;12.57;;;11.45;;
80379;SDS011;69690;48.158;17.134;2023-06-10T09:25:56;11.98;;;10.98;;
80379;SDS011;69690;48.158;17.134;2023-06-10T09:31:03;12.00;;;10.90;;
80379;SDS011;69690;48.158;17.134;2023-06-10T09:36:05;11.75;;;10.85;;
80379;SDS011;69690;48.158;17.134;2023-06-10T09:41:07;12.23;;;11.23;;
80379;SDS011;69690;48.158;17.134;2023-06-10T09:46:18;12.30;;;11.30;;
80379;SDS011;69690;48.158;17.134;2023-06-10T09:51:20;11.75;;;10.65;;
80379;SDS011;69690;48.158;17.134;2023-06-10T09:56:32;10.75;;;9.95;;
80379;SDS011;69690;48.158;17.134;2023-06-10T10:01:37;10.18;;;9.40;;
80379;SDS011;69690;48.158;17.134;2023-06-10T10:06:38;9.63;;;8.93;;
80379;SDS011;69690;48.158;17.134;2023-06-10T10:11:40;11.20;;;10.23;;
80379;SDS011;69690;48.158;17.134;2023-06-10T10:16:43;12.00;;;11.00;;
80379;SDS011;69690;48.158;17.134;2023-06-10T10:21:56;10.30;;;9.48;;
80379;SDS011;69690;48.158;17.134;2023-06-10T10:27:17;8.65;;;8.05;;
80379;SDS011;69690;48.158;17.134;2023-06-10T10:32:30;9.77;;;8.95;;
80379;SDS011;69690;48.158;17.134;2023-06-10T10:37:39;8.50;;;7.78;;
80379;SDS011;69690;48.158;17.134;2023-06-10T10:42:40;8.07;;;7.47;;
80379;SDS011;69690;48.158;17.134;2023-06-10T10:47:43;7.78;;;7.20;;
80379;SDS011;69690;48.158;17.134;2023-06-10T10:52:51;8.02;;;7.32;;
80379;SDS011;69690;48.158;17.134;2023-06-10T10:58:03;7.28;;;6.78;;
80379;SDS011;69690;48.158;17.134;2023-06-10T11:03:15;6.95;;;6.40;;
80379;SDS011;69690;48.158;17.134;2023-06-10T11:13:32;5.90;;;5.40;;
80379;SDS011;69690;48.158;17.134;2023-06-10T11:18:40;5.68;;;5.28;;
80379;SDS011;69690;48.158;17.134;2023-06-10T11:23:42;6.30;;;5.80;;
80379;SDS011;69690;48.158;17.134;2023-06-10T11:33:48;6.05;;;5.65;;
80379;SDS011;69690;48.158;17.134;2023-06-10T11:39:04;6.78;;;6.10;;
80379;SDS011;69690;48.158;17.134;2023-06-10T11:44:08;6.32;;;5.93;;
80379;SDS011;69690;48.158;17.134;2023-06-10T11:49:15;8.98;;;8.27;;
80379;SDS011;69690;48.158;17.134;2023-06-10T11:54:16;7.93;;;7.30;;
80379;SDS011;69690;48.158;17.134;2023-06-10T11:59:18;9.68;;;8.77;;
80379;SDS011;69690;48.158;17.134;2023-06-10T12:04:27;10.50;;;9.65;;
80379;SDS011;69690;48.158;17.134;2023-06-10T12:09:29;9.73;;;9.00;;
80379;SDS011;69690;48.158;17.134;2023-06-10T12:14:49;8.13;;;7.43;;
80379;SDS011;69690;48.158;17.134;2023-06-10T12:20:04;9.00;;;8.20;;
80379;SDS011;69690;48.158;17.134;2023-06-10T12:25:10;9.60;;;8.77;;
80379;SDS011;69690;48.158;17.134;2023-06-10T12:30:18;9.00;;;8.30;;
80379;SDS011;69690;48.158;17.134;2023-06-10T12:35:23;9.73;;;8.90;;
80379;SDS011;69690;48.158;17.134;2023-06-10T12:40:30;10.45;;;9.65;;
80379;SDS011;69690;48.158;17.134;2023-06-10T12:45:35;10.05;;;9.20;;
80379;SDS011;69690;48.158;17.134;2023-06-10T12:50:40;12.90;;;11.57;;
80379;SDS011;69690;48.158;17.134;2023-06-10T12:55:42;15.38;;;13.88;;
80379;SDS011;69690;48.158;17.134;2023-06-10T13:00:45;15.35;;;13.95;;
80379;SDS011;69690;48.158;17.134;2023-06-10T13:05:49;13.77;;;12.57;;
80379;SDS011;69690;48.158;17.134;2023-06-10T13:10:50;14.77;;;13.48;;
80379;SDS011;69690;48.158;17.134;2023-06-10T13:15:52;12.73;;;11.50;;
80379;SDS011;69690;48.158;17.134;2023-06-10T13:20:53;13.75;;;12.48;;
80379;SDS011;69690;48.158;17.134;2023-06-10T13:25:54;11.82;;;10.73;;
80379;SDS011;69690;48.158;17.134;2023-06-10T13:30:56;12.77;;;11.68;;
80379;SDS011;69690;48.158;17.134;2023-06-10T13:40:58;10.30;;;9.45;;
80379;SDS011;69690;48.158;17.134;2023-06-10T13:46:00;12.35;;;11.40;;
80379;SDS011;69690;48.158;17.134;2023-06-10T13:51:01;11.88;;;10.88;;
80379;SDS011;69690;48.158;17.134;2023-06-10T13:56:02;14.25;;;12.98;;
80379;SDS011;69690;48.158;17.134;2023-06-10T14:01:03;10.05;;;9.25;;
80379;SDS011;69690;48.158;17.134;2023-06-10T14:06:07;10.75;;;9.70;;
80379;SDS011;69690;48.158;17.134;2023-06-10T14:11:09;9.13;;;8.43;;
80379;SDS011;69690;48.158;17.134;2023-06-10T14:16:10;8.55;;;7.85;;
80379;SDS011;69690;48.158;17.134;2023-06-10T14:21:11;9.02;;;8.13;;
80379;SDS011;69690;48.158;17.134;2023-06-10T14:26:13;9.93;;;9.13;;
80379;SDS011;69690;48.158;17.134;2023-06-10T14:31:14;9.98;;;9.07;;
80379;SDS011;69690;48.158;17.134;2023-06-10T14:36:15;10.48;;;9.68;;
80379;SDS011;69690;48.158;17.134;2023-06-10T14:41:17;9.77;;;9.05;;
80379;SDS011;69690;48.158;17.134;2023-06-10T14:46:18;9.48;;;8.68;;
80379;SDS011;69690;48.158;17.134;2023-06-10T14:51:21;9.13;;;8.20;;
80379;SDS011;69690;48.158;17.134;2023-06-10T14:56:22;10.27;;;9.38;;
80379;SDS011;69690;48.158;17.134;2023-06-10T15:01:24;9.90;;;9.15;;
80379;SDS011;69690;48.158;17.134;2023-06-10T15:06:25;8.35;;;7.65;;
80379;SDS011;69690;48.158;17.134;2023-06-10T15:11:26;7.62;;;6.93;;
80379;SDS011;69690;48.158;17.134;2023-06-10T15:16:28;8.85;;;7.95;;
80379;SDS011;69690;48.158;17.134;2023-06-10T15:21:29;10.95;;;9.93;;
80379;SDS011;69690;48.158;17.134;2023-06-10T15:26:30;10.20;;;9.27;;
80379;SDS011;69690;48.158;17.134;2023-06-10T15:31:31;8.02;;;7.32;;
80379;SDS011;69690;48.158;17.134;2023-06-10T15:36:33;4.97;;;4.57;;
80379;SDS011;69690;48.158;17.134;2023-06-10T15:41:36;5.15;;;3.90;;
80379;SDS011;69690;48.158;17.134;2023-06-10T15:46:38;4.05;;;3.65;;
80379;SDS011;69690;48.158;17.134;2023-06-10T15:51:39;5.47;;;4.97;;
80379;SDS011;69690;48.158;17.134;2023-06-10T15:56:41;5.95;;;5.45;;
80379;SDS011;69690;48.158;17.134;2023-06-10T16:01:42;6.12;;;5.43;;
80379;SDS011;69690;48.158;17.134;2023-06-10T16:06:43;6.80;;;6.10;;
80379;SDS011;69690;48.158;17.134;2023-06-10T16:11:44;7.15;;;6.55;;
80379;SDS011;69690;48.158;17.134;2023-06-10T16:16:46;6.70;;;6.20;;
80379;SDS011;69690;48.158;17.134;2023-06-10T16:21:47;7.53;;;6.85;;
80379;SDS011;69690;48.158;17.134;2023-06-10T16:26:49;8.23;;;7.43;;
80379;SDS011;69690;48.158;17.134;2023-06-10T16:31:50;7.03;;;6.35;;
80379;SDS011;69690;48.158;17.134;2023-06-10T16:36:51;5.53;;;5.05;;
80379;SDS011;69690;48.158;17.134;2023-06-10T16:41:52;9.45;;;8.43;;
80379;SDS011;69690;48.158;17.134;2023-06-10T16:46:54;7.97;;;5.62;;
80379;SDS011;69690;48.158;17.134;2023-06-10T16:51:55;5.97;;;5.32;;
80379;SDS011;69690;48.158;17.134;2023-06-10T16:56:56;4.80;;;4.30;;
80379;SDS011;69690;48.158;17.134;2023-06-10T17:01:58;4.85;;;3.65;;
80379;SDS011;69690;48.158;17.134;2023-06-10T17:06:59;5.65;;;4.40;;
80379;SDS011;69690;48.158;17.134;2023-06-10T17:12:00;5.40;;;4.90;;
80379;SDS011;69690;48.158;17.134;2023-06-10T17:17:02;5.80;;;5.20;;
80379;SDS011;69690;48.158;17.134;2023-06-10T17:22:03;5.50;;;5.00;;
80379;SDS011;69690;48.158;17.134;2023-06-10T17:27:05;6.60;;;5.50;;
80379;SDS011;69690;48.158;17.134;2023-06-10T17:32:06;6.87;;;6.28;;
80379;SDS011;69690;48.158;17.134;2023-06-10T17:37:08;6.87;;;6.10;;
80379;SDS011;69690;48.158;17.134;2023-06-10T17:42:09;5.60;;;5.20;;
80379;SDS011;69690;48.158;17.134;2023-06-10T17:47:11;6.07;;;5.57;;
80379;SDS011;69690;48.158;17.134;2023-06-10T17:52:12;6.62;;;6.03;;
80379;SDS011;69690;48.158;17.134;2023-06-10T17:57:13;7.47;;;6.30;;
80379;SDS011;69690;48.158;17.134;2023-06-10T18:02:15;7.32;;;6.55;;
80379;SDS011;69690;48.158;17.134;2023-06-10T18:07:16;7.43;;;6.82;;
80379;SDS011;69690;48.158;17.134;2023-06-10T18:12:18;8.55;;;7.85;;
80379;SDS011;69690;48.158;17.134;2023-06-10T18:17:19;8.77;;;8.07;;
80379;SDS011;69690;48.158;17.134;2023-06-10T18:22:20;7.65;;;6.95;;
80379;SDS011;69690;48.158;17.134;2023-06-10T18:27:23;8.38;;;7.57;;
80379;SDS011;69690;48.158;17.134;2023-06-10T18:32:24;8.13;;;7.32;;
80379;SDS011;69690;48.158;17.134;2023-06-10T18:37:25;8.80;;;8.00;;
80379;SDS011;69690;48.158;17.134;2023-06-10T18:42:27;9.73;;;8.82;;
80379;SDS011;69690;48.158;17.134;2023-06-10T18:47:28;8.68;;;8.02;;
80379;SDS011;69690;48.158;17.134;2023-06-10T18:52:29;10.52;;;9.73;;
80379;SDS011;69690;48.158;17.134;2023-06-10T18:57:31;11.43;;;10.52;;
80379;SDS011;69690;48.158;17.134;2023-06-10T19:02:32;12.13;;;11.12;;
80379;SDS011;69690;48.158;17.134;2023-06-10T19:07:35;12.98;;;11.98;;
80379;SDS011;69690;48.158;17.134;2023-06-10T19:12:36;13.98;;;12.82;;
80379;SDS011;69690;48.158;17.134;2023-06-10T19:17:38;14.20;;;13.10;;
80379;SDS011;69690;48.158;17.134;2023-06-10T19:22:40;14.48;;;13.10;;
80379;SDS011;69690;48.158;17.134;2023-06-10T19:27:42;16.50;;;14.85;;
80379;SDS011;69690;48.158;17.134;2023-06-10T19:32:43;16.48;;;15.13;;
80379;SDS011;69690;48.158;17.134;2023-06-10T19:37:44;16.60;;;15.30;;
80379;SDS011;69690;48.158;17.134;2023-06-10T19:42:47;15.35;;;14.02;;
80379;SDS011;69690;48.158;17.134;2023-06-10T19:47:48;15.48;;;14.02;;
80379;SDS011;69690;48.158;17.134;2023-06-10T19:52:50;16.60;;;15.23;;
80379;SDS011;69690;48.158;17.134;2023-06-10T19:57:51;16.20;;;14.87;;
80379;SDS011;69690;48.158;17.134;2023-06-10T20:02:55;16.08;;;14.75;;
80379;SDS011;69690;48.158;17.134;2023-06-10T20:07:56;15.77;;;14.27;;
80379;SDS011;69690;48.158;17.134;2023-06-10T20:12:57;13.93;;;12.93;;
80379;SDS011;69690;48.158;17.134;2023-06-10T20:17:59;21.10;;;19.30;;
80379;SDS011;69690;48.158;17.134;2023-06-10T20:23:00;25.55;;;23.38;;
80379;SDS011;69690;48.158;17.134;2023-06-10T20:28:01;27.13;;;24.75;;
80379;SDS011;69690;48.158;17.134;2023-06-10T20:33:03;26.52;;;23.52;;
80379;SDS011;69690;48.158;17.134;2023-06-10T20:38:06;28.35;;;25.95;;
80379;SDS011;69690;48.158;17.134;2023-06-10T20:43:07;25.83;;;23.33;;
80379;SDS011;69690;48.158;17.134;2023-06-10T20:48:10;22.30;;;20.27;;
80379;SDS011;69690;48.158;17.134;2023-06-10T20:53:11;19.45;;;17.75;;
80379;SDS011;69690;48.158;17.134;2023-06-10T20:58:12;16.77;;;15.27;;
80379;SDS011;69690;48.158;17.134;2023-06-10T21:03:14;14.90;;;13.80;;
80379;SDS011;69690;48.158;17.134;2023-06-10T21:08:15;15.00;;;13.75;;
80379;SDS011;69690;48.158;17.134;2023-06-10T21:13:17;12.95;;;11.95;;
80379;SDS011;69690;48.158;17.134;2023-06-10T21:18:18;13.52;;;12.37;;
80379;SDS011;69690;48.158;17.134;2023-06-10T21:23:19;13.02;;;11.88;;
80379;SDS011;69690;48.158;17.134;2023-06-10T21:28:21;11.55;;;10.73;;
80379;SDS011;69690;48.158;17.134;2023-06-10T21:33:22;12.35;;;11.25;;
80379;SDS011;69690;48.158;17.134;2023-06-10T21:38:23;11.60;;;10.70;;
80379;SDS011;69690;48.158;17.134;2023-06-10T21:43:25;12.77;;;11.65;;
80379;SDS011;69690;48.158;17.134;2023-06-10T21:48:27;13.32;;;12.30;;
80379;SDS011;69690;48.158;17.134;2023-06-10T21:53:28;14.48;;;13.18;;
80379;SDS011;69690;48.158;17.134;2023-06-10T21:58:29;14.77;;;13.38;;
80379;SDS011;69690;48.158;17.134;2023-06-10T22:03:30;14.45;;;13.15;;
80379;SDS011;69690;48.158;17.134;2023-06-10T22:08:32;12.02;;;11.02;;
80379;SDS011;69690;48.158;17.134;2023-06-10T22:13:33;12.30;;;11.07;;
80379;SDS011;69690;48.158;17.134;2023-06-10T22:18:35;12.40;;;11.30;;
80379;SDS011;69690;48.158;17.134;2023-06-10T22:23:36;11.98;;;11.07;;
80379;SDS011;69690;48.158;17.134;2023-06-10T22:28:37;11.00;;;10.10;;
80379;SDS011;69690;48.158;17.134;2023-06-10T22:33:39;10.43;;;9.63;;
80379;SDS011;69690;48.158;17.134;2023-06-10T22:38:40;16.95;;;9.88;;
80379;SDS011;69690;48.158;17.134;2023-06-10T22:43:41;11.55;;;10.57;;
80379;SDS011;69690;48.158;17.134;2023-06-10T22:48:42;10.93;;;9.88;;
80379;SDS011;69690;48.158;17.134;2023-06-10T22:53:44;11.82;;;10.75;;
80379;SDS011;69690;48.158;17.134;2023-06-10T22:58:45;10.57;;;9.77;;
80379;SDS011;69690;48.158;17.134;2023-06-10T23:03:46;11.10;;;10.30;;
80379;SDS011;69690;48.158;17.134;2023-06-10T23:08:50;10.43;;;9.32;;
80379;SDS011;69690;48.158;17.134;2023-06-10T23:13:51;9.88;;;8.88;;
80379;SDS011;69690;48.158;17.134;2023-06-10T23:18:53;10.18;;;9.38;;
80379;SDS011;69690;48.158;17.134;2023-06-10T23:23:56;11.77;;;10.88;;
80379;SDS011;69690;48.158;17.134;2023-06-10T23:28:57;13.40;;;12.30;;
80379;SDS011;69690;48.158;17.134;2023-06-10T23:34:00;11.80;;;10.80;;
80379;SDS011;69690;48.158;17.134;2023-06-10T23:39:05;12.70;;;11.40;;
80379;SDS011;69690;48.158;17.134;2023-06-10T23:44:07;11.90;;;11.00;;
80379;SDS011;69690;48.158;17.134;2023-06-10T23:49:10;11.95;;;10.82;;
80379;SDS011;69690;48.158;17.134;2023-06-10T23:54:11;12.02;;;11.02;;
80379;SDS011;69690;48.158;17.134;2023-06-10T23:59:13;13.10;;;12.10;;
